createdAt,value
2022-10-04T00:02:23.290Z,6.72
2022-10-04T00:05:06.713Z,5.95
2022-10-04T00:07:28.252Z,8.18
2022-10-04T00:09:51.907Z,6.20
2022-10-04T00:11:57.389Z,6.57
2022-10-04T00:14:08.602Z,6.57
2022-10-04T00:16:21.181Z,7.28
2022-10-04T00:18:38.715Z,7.65
2022-10-04T00:20:50.373Z,6.68
2022-10-04T00:23:25.628Z,12.55
2022-10-04T00:25:36.737Z,7.70
2022-10-04T00:27:39.239Z,7.70
2022-10-04T00:29:46.842Z,7.45
2022-10-04T00:32:27.483Z,6.03
2022-10-04T00:34:30.928Z,6.82
2022-10-04T00:36:51.555Z,5.45
2022-10-04T00:39:07.325Z,5.35
2022-10-04T00:41:12.145Z,5.85
2022-10-04T00:43:18.073Z,9.45
2022-10-04T00:45:27.523Z,5.68
2022-10-04T00:47:41.286Z,6.53
2022-10-04T00:49:45.257Z,5.18
2022-10-04T00:52:00.404Z,6.57
2022-10-04T00:54:16.043Z,5.22
2022-10-04T00:56:37.036Z,5.90
2022-10-04T00:58:50.056Z,7.95
2022-10-04T01:00:52.768Z,6.95
2022-10-04T01:03:04.038Z,7.43
2022-10-04T01:05:12.619Z,6.38
2022-10-04T01:07:17.709Z,8.75
2022-10-04T01:09:19.817Z,6.45
2022-10-04T01:11:36.129Z,5.57
2022-10-04T01:13:46.405Z,5.57
2022-10-04T01:15:59.594Z,5.85
2022-10-04T01:18:17.862Z,6.18
2022-10-04T01:20:48.334Z,5.90
2022-10-04T01:22:52.919Z,5.70
2022-10-04T01:24:54.466Z,6.00
2022-10-04T01:27:00.794Z,6.13
2022-10-04T01:29:07.422Z,6.28
2022-10-04T01:31:13.706Z,6.60
2022-10-04T01:33:17.795Z,11.57
2022-10-04T01:35:22.420Z,5.80
2022-10-04T01:37:23.899Z,5.72
2022-10-04T01:39:26.731Z,6.90
2022-10-04T01:41:36.646Z,5.75
2022-10-04T01:43:43.125Z,5.97
2022-10-04T01:45:54.394Z,5.35
2022-10-04T01:48:07.855Z,6.40
2022-10-04T01:50:15.924Z,6.72
2022-10-04T01:52:28.890Z,7.68
2022-10-04T01:54:45.536Z,6.35
2022-10-04T01:56:56.037Z,6.25
2022-10-04T01:59:00.560Z,6.38
2022-10-04T02:01:07.485Z,6.43
2022-10-04T02:03:15.420Z,6.55
2022-10-04T02:05:30.077Z,7.20
2022-10-04T02:07:34.369Z,6.57
2022-10-04T02:09:49.127Z,5.47
2022-10-04T02:11:54.025Z,6.65
2022-10-04T02:13:55.976Z,5.35
2022-10-04T02:15:58.239Z,6.70
2022-10-04T02:18:01.064Z,6.10
2022-10-04T02:20:05.797Z,7.32
2022-10-04T02:22:09.366Z,6.97
2022-10-04T02:24:14.526Z,5.80
2022-10-04T02:26:15.986Z,7.65
2022-10-04T02:28:26.195Z,5.38
2022-10-04T02:30:27.852Z,5.25
2022-10-04T02:32:49.621Z,6.00
2022-10-04T02:34:53.277Z,5.15
2022-10-04T02:36:54.974Z,5.32
2022-10-04T02:39:25.377Z,13.60
2022-10-04T02:41:56.015Z,4.30
2022-10-04T02:44:12.100Z,4.90
2022-10-04T02:46:29.378Z,5.38
2022-10-04T02:48:53.835Z,5.43
2022-10-04T02:51:01.850Z,5.93
2022-10-04T02:53:23.746Z,6.18
2022-10-04T02:55:30.192Z,8.75
2022-10-04T02:57:33.489Z,6.40
2022-10-04T02:59:44.598Z,5.72
2022-10-04T03:01:53.241Z,4.90
2022-10-04T03:03:55.890Z,4.85
2022-10-04T03:06:32.536Z,6.35
2022-10-04T03:08:37.288Z,4.25
2022-10-04T03:10:46.957Z,4.38
2022-10-04T03:12:53.270Z,6.97
2022-10-04T03:14:58.229Z,6.00
2022-10-04T03:17:04.060Z,6.00
2022-10-04T03:19:08.881Z,6.78
2022-10-04T03:21:19.318Z,4.32
2022-10-04T03:23:25.382Z,4.68
2022-10-04T03:25:35.174Z,5.38
2022-10-04T03:27:36.959Z,5.82
2022-10-04T03:29:46.163Z,7.57
2022-10-04T03:32:08.546Z,7.53
2022-10-04T03:34:35.396Z,6.97
2022-10-04T03:36:40.467Z,5.43
2022-10-04T03:38:41.920Z,4.68
2022-10-04T03:40:51.530Z,5.20
2022-10-04T03:42:56.239Z,5.90
2022-10-04T03:45:01.885Z,4.30
2022-10-04T03:47:09.618Z,4.70
2022-10-04T03:49:15.334Z,4.10
2022-10-04T03:51:20.062Z,4.93
2022-10-04T03:53:31.434Z,3.60
2022-10-04T03:55:36.172Z,4.25
2022-10-04T03:57:38.119Z,3.72
2022-10-04T03:59:44.318Z,4.05
2022-10-04T04:02:00.539Z,4.13
2022-10-04T04:04:19.177Z,4.88
2022-10-04T04:06:21.259Z,4.53
2022-10-04T04:08:37.386Z,3.67
2022-10-04T04:10:42.725Z,3.38
2022-10-04T04:12:50.038Z,8.70
2022-10-04T04:14:52.726Z,3.58
2022-10-04T04:16:55.758Z,7.47
2022-10-04T04:19:08.100Z,4.97
2022-10-04T04:21:48.658Z,3.65
2022-10-04T04:23:58.224Z,3.30
2022-10-04T04:26:42.752Z,3.03
2022-10-04T04:29:27.543Z,3.92
2022-10-04T04:31:35.126Z,3.08
2022-10-04T04:33:43.820Z,3.45
2022-10-04T04:35:45.383Z,2.67
2022-10-04T04:38:06.253Z,3.97
2022-10-04T04:40:16.688Z,3.80
2022-10-04T04:42:29.430Z,3.25
2022-10-04T04:44:30.886Z,4.40
2022-10-04T04:46:38.766Z,4.80
2022-10-04T04:48:45.085Z,4.13
2022-10-04T04:50:53.558Z,4.65
2022-10-04T04:52:59.408Z,12.85
2022-10-04T04:55:01.621Z,7.68
2022-10-04T04:57:03.866Z,5.82
2022-10-04T04:59:07.470Z,6.45
2022-10-04T05:01:30.241Z,5.47
2022-10-04T05:03:33.927Z,4.22
2022-10-04T05:05:36.189Z,5.60
2022-10-04T05:07:37.741Z,7.18
2022-10-04T05:09:39.176Z,6.78
2022-10-04T05:11:41.526Z,5.00
2022-10-04T05:14:12.353Z,5.53
2022-10-04T05:16:16.308Z,6.60
2022-10-04T05:18:28.309Z,6.13
2022-10-04T05:20:31.481Z,7.15
2022-10-04T05:22:33.237Z,8.23
2022-10-04T05:24:38.130Z,4.40
2022-10-04T05:26:41.937Z,5.55
2022-10-04T05:28:46.299Z,5.45
2022-10-04T05:31:16.806Z,5.05
2022-10-04T05:33:24.959Z,4.72
2022-10-04T05:35:28.283Z,5.80
2022-10-04T05:38:02.104Z,6.13
2022-10-04T05:40:15.382Z,4.45
2022-10-04T05:42:23.489Z,5.05
2022-10-04T05:44:31.241Z,4.65
2022-10-04T05:46:38.787Z,10.23
2022-10-04T05:48:44.756Z,4.97
2022-10-04T05:50:47.148Z,5.00
2022-10-04T05:52:51.030Z,4.90
2022-10-04T05:55:30.217Z,4.80
2022-10-04T05:57:37.914Z,6.38
2022-10-04T05:59:46.441Z,4.55
2022-10-04T06:02:09.786Z,4.97
2022-10-04T06:04:20.301Z,4.75
2022-10-04T06:07:03.559Z,4.80
2022-10-04T06:09:31.790Z,4.07
2022-10-04T06:12:02.364Z,7.50
2022-10-04T06:14:20.754Z,3.72
2022-10-04T06:16:46.784Z,4.95
2022-10-04T06:19:13.042Z,4.45
2022-10-04T06:21:30.650Z,6.18
2022-10-04T06:23:35.275Z,4.88
2022-10-04T06:25:40.375Z,4.60
2022-10-04T06:27:50.938Z,4.70
2022-10-04T06:29:58.803Z,3.50
2022-10-04T06:32:12.011Z,3.80
2022-10-04T06:34:45.711Z,2.60
2022-10-04T06:37:02.220Z,5.35
2022-10-04T06:39:22.431Z,3.70
2022-10-04T06:41:39.285Z,8.90
2022-10-04T06:43:53.330Z,10.27
2022-10-04T06:46:03.786Z,3.58
2022-10-04T06:48:09.191Z,12.95
2022-10-04T06:50:33.717Z,2.95
2022-10-04T06:53:35.032Z,4.15
2022-10-04T06:56:11.552Z,10.05
2022-10-04T06:58:35.544Z,7.28
2022-10-04T07:00:57.289Z,4.75
2022-10-04T07:03:07.002Z,4.05
2022-10-04T07:05:32.521Z,14.82
2022-10-04T07:07:37.330Z,6.35
2022-10-04T07:09:50.784Z,3.22
2022-10-04T07:12:10.784Z,7.85
2022-10-04T07:14:17.966Z,3.30
2022-10-04T07:16:27.938Z,3.50
2022-10-04T07:18:37.802Z,5.80
2022-10-04T07:20:39.770Z,8.70
2022-10-04T07:23:03.354Z,7.75
2022-10-04T07:25:14.839Z,6.25
2022-10-04T07:27:52.327Z,7.07
2022-10-04T07:29:56.105Z,6.38
2022-10-04T07:32:06.286Z,6.70
2022-10-04T07:34:16.576Z,6.22
2022-10-04T07:36:25.265Z,5.05
2022-10-04T07:38:30.076Z,6.00
2022-10-04T07:40:37.275Z,4.47
2022-10-04T07:42:45.124Z,5.95
2022-10-04T07:44:57.572Z,4.63
2022-10-04T07:47:06.632Z,5.60
2022-10-04T07:49:13.542Z,4.55
2022-10-04T07:51:24.520Z,4.75
2022-10-04T07:53:37.951Z,4.00
2022-10-04T07:55:54.755Z,4.88
2022-10-04T07:58:12.709Z,4.57
2022-10-04T08:00:52.170Z,5.80
2022-10-04T08:03:36.532Z,9.15
2022-10-04T08:06:12.105Z,5.18
2022-10-04T08:08:22.599Z,5.60
2022-10-04T08:10:38.079Z,5.57
2022-10-04T08:12:48.803Z,6.65
2022-10-04T08:15:19.714Z,4.90
2022-10-04T08:17:45.996Z,5.60
2022-10-04T08:20:19.537Z,6.47
2022-10-04T08:22:34.654Z,5.35
2022-10-04T08:24:41.467Z,20.50
2022-10-04T08:27:12.064Z,7.22
2022-10-04T08:29:38.587Z,4.95
2022-10-04T08:32:00.825Z,4.65
2022-10-04T08:34:22.791Z,4.13
2022-10-04T08:36:45.855Z,6.03
2022-10-04T08:38:50.524Z,6.15
2022-10-04T08:41:07.894Z,5.20
2022-10-04T08:43:25.575Z,6.93
2022-10-04T08:45:55.281Z,6.25
2022-10-04T08:48:24.779Z,7.32
2022-10-04T08:51:06.814Z,6.82
2022-10-04T08:53:17.455Z,6.15
2022-10-04T08:55:58.626Z,6.80
2022-10-04T08:58:25.000Z,6.68
2022-10-04T09:00:55.848Z,6.45
2022-10-04T09:03:11.958Z,7.15
2022-10-04T09:05:27.666Z,34.15
2022-10-04T09:07:47.859Z,14.82
2022-10-04T09:10:17.575Z,10.13
2022-10-04T09:12:44.226Z,9.40
2022-10-04T09:15:19.012Z,8.32
2022-10-04T09:17:23.212Z,9.38
2022-10-04T09:19:55.345Z,6.28
2022-10-04T09:21:56.813Z,6.65
2022-10-04T09:24:37.779Z,6.68
2022-10-04T09:26:48.287Z,5.65
2022-10-04T09:29:11.412Z,9.23
2022-10-04T09:31:34.722Z,6.00
2022-10-04T09:34:00.279Z,5.80
2022-10-04T09:36:40.553Z,5.47
2022-10-04T09:39:25.162Z,6.28
2022-10-04T09:41:29.267Z,5.68
2022-10-04T09:44:08.414Z,5.28
2022-10-04T09:46:37.688Z,7.18
2022-10-04T09:48:44.462Z,5.75
2022-10-04T09:51:17.049Z,4.60
2022-10-04T09:53:37.687Z,4.90
2022-10-04T09:56:26.835Z,9.23
2022-10-04T09:58:43.408Z,5.20
2022-10-04T10:01:13.972Z,4.15
2022-10-04T10:03:53.690Z,8.07
2022-10-04T10:06:25.970Z,4.35
2022-10-04T10:08:39.602Z,6.53
2022-10-04T10:11:29.339Z,4.80
2022-10-04T10:13:52.604Z,5.53
2022-10-04T10:16:13.094Z,6.65
2022-10-04T10:19:11.391Z,5.47
2022-10-04T10:21:15.372Z,4.88
2022-10-04T10:23:35.474Z,6.75
2022-10-04T10:26:15.484Z,4.80
2022-10-04T10:28:34.718Z,4.25
2022-10-04T10:30:39.322Z,4.07
2022-10-04T10:33:09.089Z,4.65
2022-10-04T10:35:52.161Z,4.57
2022-10-04T10:38:35.502Z,4.45
2022-10-04T10:41:00.295Z,4.20
2022-10-04T10:43:08.986Z,3.97
2022-10-04T10:45:26.588Z,4.70
2022-10-04T10:47:46.038Z,5.13
2022-10-04T10:50:02.716Z,4.00
2022-10-04T10:52:22.726Z,4.80
2022-10-04T10:54:39.414Z,3.75
2022-10-04T10:57:00.853Z,3.42
2022-10-04T10:59:39.886Z,5.97
2022-10-04T11:02:01.024Z,3.45
2022-10-04T11:04:12.486Z,4.28
2022-10-04T11:06:23.485Z,3.92
2022-10-04T11:09:02.237Z,2.95
2022-10-04T11:11:15.412Z,3.28
2022-10-04T11:13:26.654Z,10.75
2022-10-04T11:15:39.563Z,3.67
2022-10-04T11:18:06.108Z,4.55
2022-10-04T11:20:26.753Z,5.07
2022-10-04T11:22:38.330Z,6.68
2022-10-04T11:25:08.291Z,3.90
2022-10-04T11:27:28.833Z,2.97
2022-10-04T11:29:43.902Z,6.38
2022-10-04T11:32:09.411Z,3.40
2022-10-04T11:34:35.622Z,6.30
2022-10-04T11:36:57.541Z,2.55
2022-10-04T11:39:08.067Z,11.10
2022-10-04T11:41:13.993Z,5.38
2022-10-04T11:43:46.622Z,3.92
2022-10-04T11:46:09.903Z,2.75
2022-10-04T11:48:48.590Z,6.53
2022-10-04T11:51:18.877Z,4.65
2022-10-04T11:53:33.797Z,4.72
2022-10-04T11:55:58.412Z,11.23
2022-10-04T11:58:14.996Z,5.53
2022-10-04T12:00:20.827Z,6.63
2022-10-04T12:02:59.444Z,2.95
2022-10-04T12:05:19.645Z,6.18
2022-10-04T12:07:45.565Z,3.92
2022-10-04T12:10:17.657Z,4.82
2022-10-04T12:12:37.247Z,4.30
2022-10-04T12:15:22.256Z,3.05
2022-10-04T12:17:42.466Z,3.38
2022-10-04T12:20:02.310Z,3.22
2022-10-04T12:22:28.022Z,8.15
2022-10-04T12:24:48.208Z,4.78
2022-10-04T12:27:27.230Z,2.58
2022-10-04T12:29:54.927Z,3.63
2022-10-04T12:32:14.979Z,2.45
2022-10-04T12:34:37.045Z,3.17
2022-10-04T12:36:50.078Z,3.80
2022-10-04T12:38:59.923Z,2.58
2022-10-04T12:41:16.166Z,4.47
2022-10-04T12:43:20.186Z,3.10
2022-10-04T12:45:40.647Z,2.90
2022-10-04T12:47:54.555Z,3.13
2022-10-04T12:50:26.181Z,5.18
2022-10-04T12:52:28.890Z,2.72
2022-10-04T12:54:36.647Z,4.85
2022-10-04T12:57:12.062Z,4.20
2022-10-04T12:59:25.715Z,6.18
2022-10-04T13:01:35.467Z,4.57
2022-10-04T13:04:19.223Z,4.88
2022-10-04T13:06:31.047Z,6.18
2022-10-04T13:08:32.444Z,3.33
2022-10-04T13:10:37.264Z,5.13
2022-10-04T13:13:15.304Z,4.03
2022-10-04T13:17:23.477Z,5.00
2022-10-04T13:18:22.084Z,3.58
2022-10-04T13:20:45.852Z,3.28
2022-10-04T13:22:58.892Z,2.72
2022-10-04T13:25:24.303Z,3.95
2022-10-04T13:27:58.042Z,3.45
2022-10-04T13:30:09.036Z,5.53
2022-10-04T13:32:20.049Z,4.60
2022-10-04T13:34:29.390Z,2.78
2022-10-04T13:36:56.684Z,3.42
2022-10-04T13:39:15.256Z,3.45
2022-10-04T13:41:35.261Z,7.68
2022-10-04T13:43:54.836Z,2.97
2022-10-04T13:46:10.543Z,1.50
2022-10-04T13:48:41.285Z,2.47
2022-10-04T13:51:06.940Z,2.75
2022-10-04T13:53:34.768Z,5.47
2022-10-04T13:56:07.175Z,1.10
2022-10-04T13:58:47.198Z,3.60
2022-10-04T14:01:21.872Z,2.05
2022-10-04T14:03:54.510Z,2.85
2022-10-04T14:06:17.132Z,1.55
2022-10-04T14:08:36.791Z,1.10
2022-10-04T14:11:04.435Z,1.80
2022-10-04T14:13:11.983Z,2.53
2022-10-04T14:15:28.191Z,2.00
2022-10-04T14:17:32.557Z,2.13
2022-10-04T14:20:01.191Z,2.63
2022-10-04T14:22:22.528Z,5.03
2022-10-04T14:24:46.573Z,1.45
2022-10-04T14:27:25.451Z,2.78
2022-10-04T14:30:06.174Z,2.15
2022-10-04T14:32:13.444Z,1.60
2022-10-04T14:34:53.678Z,2.90
2022-10-04T14:37:00.999Z,1.60
2022-10-04T14:39:24.201Z,1.33
2022-10-04T14:41:52.166Z,1.50
2022-10-04T14:44:20.568Z,2.38
2022-10-04T14:46:47.847Z,3.03
2022-10-04T14:49:19.975Z,2.40
2022-10-04T14:51:35.185Z,2.90
2022-10-04T14:53:47.638Z,2.00
2022-10-04T14:56:06.345Z,1.88
2022-10-04T14:58:29.061Z,1.65
2022-10-04T15:01:18.486Z,2.30
2022-10-04T15:03:31.750Z,2.47
2022-10-04T15:06:00.055Z,2.70
2022-10-04T15:08:24.306Z,3.90
2022-10-04T15:10:34.329Z,2.80
2022-10-04T15:13:09.918Z,4.20
2022-10-04T15:15:14.440Z,1.70
2022-10-04T15:17:33.436Z,2.53
2022-10-04T15:20:08.119Z,1.73
2022-10-04T15:22:22.267Z,1.52
2022-10-04T15:24:27.744Z,5.32
2022-10-04T15:26:29.078Z,1.80
2022-10-04T15:28:50.588Z,2.35
2022-10-04T15:31:02.249Z,2.10
2022-10-04T15:33:19.509Z,2.60
2022-10-04T15:35:41.867Z,2.58
2022-10-04T15:37:47.288Z,1.75
2022-10-04T15:40:09.248Z,1.83
2022-10-04T15:42:33.197Z,1.85
2022-10-04T15:45:14.521Z,1.73
2022-10-04T15:47:53.371Z,2.85
2022-10-04T15:50:21.374Z,3.03
2022-10-04T15:52:44.102Z,2.45
2022-10-04T15:55:08.749Z,1.80
2022-10-04T15:57:27.730Z,1.95
2022-10-04T15:59:53.643Z,2.50
2022-10-04T16:02:34.417Z,1.80
2022-10-04T16:04:43.544Z,2.03
2022-10-04T16:06:48.943Z,2.17
2022-10-04T16:08:59.485Z,2.30
2022-10-04T16:11:37.031Z,2.08
2022-10-04T16:14:16.178Z,1.67
2022-10-04T16:16:17.965Z,1.77
2022-10-04T16:18:44.279Z,4.68
2022-10-04T16:21:15.241Z,5.45
2022-10-04T16:23:25.807Z,3.42
2022-10-04T16:25:38.100Z,2.00
2022-10-04T16:27:48.874Z,2.33
2022-10-04T16:30:25.014Z,5.00
2022-10-04T16:32:44.258Z,3.25
2022-10-04T16:34:48.173Z,7.43
2022-10-04T16:37:02.096Z,3.67
2022-10-04T16:39:22.727Z,2.92
2022-10-04T16:41:34.299Z,2.08
2022-10-04T16:43:38.119Z,2.88
2022-10-04T16:46:17.191Z,1.83
2022-10-04T16:48:56.436Z,3.75
2022-10-04T16:51:13.458Z,2.33
2022-10-04T16:53:30.599Z,4.32
2022-10-04T16:56:02.253Z,2.97
2022-10-04T16:58:29.578Z,2.72
2022-10-04T17:00:35.774Z,4.07
2022-10-04T17:03:00.773Z,2.53
2022-10-04T17:05:25.577Z,3.13
2022-10-04T17:08:10.366Z,13.57
2022-10-04T17:10:21.775Z,8.30
2022-10-04T17:12:37.064Z,7.55
2022-10-04T17:15:16.778Z,9.10
2022-10-04T17:18:06.995Z,7.32
2022-10-04T17:20:43.414Z,5.10
2022-10-04T17:22:49.020Z,5.72
2022-10-04T17:25:02.394Z,9.38
2022-10-04T17:27:45.603Z,18.58
2022-10-04T17:30:21.224Z,13.63
2022-10-04T17:32:30.474Z,11.55
2022-10-04T17:35:09.806Z,17.83
2022-10-04T17:37:34.543Z,29.55
2022-10-04T17:39:52.121Z,16.83
2022-10-04T17:42:17.018Z,15.38
2022-10-04T17:44:45.280Z,13.77
2022-10-04T17:47:01.881Z,16.48
2022-10-04T17:49:52.494Z,11.35
2022-10-04T17:52:15.082Z,9.50
2022-10-04T17:54:38.835Z,7.25
2022-10-04T17:56:45.252Z,5.75
2022-10-04T17:58:53.011Z,5.13
2022-10-04T18:00:58.991Z,4.38
2022-10-04T18:03:31.835Z,5.65
2022-10-04T18:05:36.897Z,4.47
2022-10-04T18:07:42.100Z,4.57
2022-10-04T18:09:48.105Z,6.63
2022-10-04T18:12:00.088Z,4.32
2022-10-04T18:14:07.454Z,4.88
2022-10-04T18:16:31.652Z,3.03
2022-10-04T18:18:42.143Z,3.78
2022-10-04T18:20:52.521Z,5.72
2022-10-04T18:23:18.080Z,5.30
2022-10-04T18:25:26.650Z,7.20
2022-10-04T18:27:29.458Z,8.48
2022-10-04T18:29:39.665Z,7.68
2022-10-04T18:31:41.555Z,7.20
2022-10-04T18:33:49.426Z,9.05
2022-10-04T18:36:17.777Z,9.18
2022-10-04T18:38:24.959Z,10.82
2022-10-04T18:40:35.173Z,10.50
2022-10-04T18:42:41.833Z,14.43
2022-10-04T18:44:48.446Z,12.32
2022-10-04T18:46:56.155Z,13.55
2022-10-04T18:49:05.245Z,14.93
2022-10-04T18:51:24.359Z,11.52
2022-10-04T18:53:39.946Z,11.60
2022-10-04T18:55:45.826Z,19.45
2022-10-04T18:58:12.127Z,23.98
2022-10-04T19:00:33.339Z,18.15
2022-10-04T19:03:04.004Z,18.67
2022-10-04T19:05:18.989Z,12.07
2022-10-04T19:07:32.389Z,11.77
2022-10-04T19:09:45.675Z,20.67
2022-10-04T19:11:53.533Z,11.95
2022-10-04T19:14:02.651Z,11.88
2022-10-04T19:16:28.405Z,14.35
2022-10-04T19:19:12.881Z,14.70
2022-10-04T19:21:43.903Z,17.85
2022-10-04T19:24:11.528Z,15.18
2022-10-04T19:26:32.894Z,17.42
2022-10-04T19:28:37.949Z,13.68
2022-10-04T19:31:01.610Z,10.55
2022-10-04T19:33:29.109Z,9.82
2022-10-04T19:36:05.059Z,14.07
2022-10-04T19:38:20.605Z,9.75
2022-10-04T19:40:21.939Z,9.30
2022-10-04T19:42:32.226Z,12.13
2022-10-04T19:45:11.548Z,7.20
2022-10-04T19:47:35.233Z,8.50
2022-10-04T19:50:05.625Z,7.50
2022-10-04T19:52:16.230Z,7.70
2022-10-04T19:54:22.412Z,9.52
2022-10-04T19:56:29.472Z,8.18
2022-10-04T19:58:41.188Z,7.93
2022-10-04T20:00:45.048Z,15.57
2022-10-04T20:02:53.980Z,7.28
2022-10-04T20:04:56.409Z,10.45
2022-10-04T20:07:03.566Z,6.43
2022-10-04T20:09:29.301Z,11.93
2022-10-04T20:11:44.211Z,7.53
2022-10-04T20:14:16.006Z,8.07
2022-10-04T20:16:46.910Z,7.25
2022-10-04T20:19:01.900Z,7.85
2022-10-04T20:21:05.337Z,8.93
2022-10-04T20:23:07.805Z,7.32
2022-10-04T20:25:10.220Z,6.10
2022-10-04T20:27:26.316Z,6.60
2022-10-04T20:29:36.714Z,5.53
2022-10-04T20:31:39.695Z,4.35
2022-10-04T20:33:49.196Z,6.38
2022-10-04T20:36:10.114Z,4.60
2022-10-04T20:38:32.106Z,5.72
2022-10-04T20:40:42.877Z,7.15
2022-10-04T20:42:44.565Z,3.97
2022-10-04T20:45:10.885Z,5.57
2022-10-04T20:47:30.635Z,10.05
2022-10-04T20:49:32.234Z,8.25
2022-10-04T20:51:33.750Z,4.47
2022-10-04T20:53:35.274Z,5.20
2022-10-04T20:55:38.931Z,3.60
2022-10-04T20:57:40.756Z,5.45
2022-10-04T20:59:42.863Z,6.47
2022-10-04T21:02:00.840Z,5.43
2022-10-04T21:04:32.309Z,6.05
2022-10-04T21:06:53.641Z,4.55
2022-10-04T21:08:55.109Z,4.47
2022-10-04T21:11:09.984Z,6.35
2022-10-04T21:13:44.017Z,4.30
2022-10-04T21:15:57.883Z,5.20
2022-10-04T21:18:07.857Z,5.38
2022-10-04T21:20:44.259Z,6.47
2022-10-04T21:22:49.764Z,9.88
2022-10-04T21:24:56.744Z,8.68
2022-10-04T21:26:58.240Z,7.05
2022-10-04T21:29:01.557Z,21.25
2022-10-04T21:31:06.281Z,6.13
2022-10-04T21:33:15.286Z,9.77
2022-10-04T21:35:16.708Z,5.97
2022-10-04T21:37:18.747Z,9.98
2022-10-04T21:39:22.998Z,6.05
2022-10-04T21:41:24.451Z,6.70
2022-10-04T21:43:26.071Z,7.32
2022-10-04T21:45:37.849Z,9.98
2022-10-04T21:47:39.318Z,6.60
2022-10-04T21:49:40.841Z,19.70
2022-10-04T21:51:42.385Z,5.95
2022-10-04T21:53:43.866Z,6.75
2022-10-04T21:55:45.467Z,6.10
2022-10-04T21:57:47.029Z,6.28
2022-10-04T21:59:48.639Z,4.72
2022-10-04T22:01:50.095Z,4.28
2022-10-04T22:03:54.002Z,7.13
2022-10-04T22:05:55.463Z,5.03
2022-10-04T22:07:58.238Z,4.68
2022-10-04T22:10:08.203Z,5.25
2022-10-04T22:12:10.137Z,4.93
2022-10-04T22:14:11.680Z,5.15
2022-10-04T22:16:16.398Z,5.47
2022-10-04T22:18:18.003Z,6.50
2022-10-04T22:20:20.502Z,5.80
2022-10-04T22:22:22.123Z,5.70
2022-10-04T22:24:23.646Z,4.90
2022-10-04T22:26:27.709Z,4.82
2022-10-04T22:28:30.574Z,4.90
2022-10-04T22:30:34.290Z,8.23
2022-10-04T22:32:38.263Z,7.95
2022-10-04T22:34:39.752Z,6.03
2022-10-04T22:36:41.740Z,5.78
2022-10-04T22:38:47.232Z,5.13
2022-10-04T22:41:08.824Z,6.07
2022-10-04T22:45:33.733Z,5.70
2022-10-04T22:47:35.420Z,4.18
2022-10-04T22:49:40.175Z,6.97
2022-10-04T22:51:50.227Z,4.93
2022-10-04T22:53:54.256Z,4.43
2022-10-04T22:55:56.824Z,5.97
2022-10-04T22:57:58.336Z,5.40
2022-10-04T23:00:15.161Z,5.70
2022-10-04T23:02:34.957Z,4.90
2022-10-04T23:04:40.777Z,5.90
2022-10-04T23:06:45.063Z,4.90
2022-10-04T23:08:46.767Z,4.47
2022-10-04T23:10:53.890Z,4.30
2022-10-04T23:12:55.384Z,4.43
2022-10-04T23:14:56.840Z,4.32
2022-10-04T23:17:24.883Z,8.68
2022-10-04T23:19:30.742Z,5.03
2022-10-04T23:21:53.294Z,6.93
2022-10-04T23:23:54.925Z,4.53
2022-10-04T23:25:56.656Z,4.53
2022-10-04T23:28:01.331Z,5.13
2022-10-04T23:30:08.738Z,3.90
2022-10-04T23:32:15.204Z,9.18
2022-10-04T23:34:19.987Z,4.78
2022-10-04T23:36:24.020Z,5.15
2022-10-04T23:38:26.040Z,7.03
2022-10-04T23:40:27.573Z,6.25
2022-10-04T23:42:31.854Z,6.40
2022-10-04T23:44:43.210Z,13.20
2022-10-04T23:46:44.927Z,4.65
2022-10-04T23:48:46.924Z,4.63
2022-10-04T23:50:53.166Z,9.30
2022-10-04T23:53:02.709Z,5.28
2022-10-04T23:55:16.443Z,4.68
2022-10-04T23:57:22.495Z,4.70
2022-10-04T23:59:25.528Z,5.40
